Latest Weather Observations for Cunderdin Airport

IDW60801

Issued at 10:05 am WST Tuesday 21 October 2014 (issued every 30 minutes, with the page automatically refreshed every 10 minutes)

About weather observations | Map of weather stations | Latest weather observations for WA | Other Formats
Station Details ID: 010286 Name: CUNDERDIN AIRFIELD Lat: -31.62 Lon: 117.22 Height: 216.7 m
Data from the previous 72 hours. | See also: Recent months at Cunderdin Airport
Date/Time
WST
Temp
°C
App
Temp
°C
Dew
Point
Rel
Hum
%
Delta-T
°C
Wind Press
QNH
hPa
Press
MSL
hPa
Rain
since 9 am
mm
Dir
 
Spd
km/h
Gust
km/h
Spd
kts
Gust
kts
21/10:00am 20.9 19.7 12.8 60 4.6 E 11 17 6 9 1022.8 1022.5 0.0
21/09:30am 19.9 19.3 13.4 66 3.7 E 9 13 5 7 1022.9 1022.6 0.0
21/09:00am 19.0 17.5 13.0 68 3.4 E 13 20 7 11 1022.9 1022.6 0.2
21/08:30am 17.7 16.7 13.4 76 2.4 E 11 15 6 8 1023.0 1022.7 0.2
21/08:00am 15.7 14.9 13.0 84 1.5 ESE 9 13 5 7 1023.0 1022.7 0.2
21/07:30am 13.9 13.8 13.3 96 0.3 SE 6 7 3 4 1022.7 1022.3 0.2
21/07:00am 12.2 12.4 11.7 97 0.3 ESE 2 7 1 4 1022.5 1022.1 0.2
21/06:30am 10.4 9.3 9.9 97 0.3 W 6 7 3 4 1022.3 1021.9 0.2
21/06:00am 8.5 6.9 7.9 96 0.3 W 6 7 3 4 1022.1 1021.7 0.2
21/05:30am 7.7 7.0 7.1 96 0.3 CALM 0 0 0 0 1021.6 1021.2 0.2
21/05:00am 7.4 6.7 6.8 96 0.3 CALM 0 0 0 0 1021.1 1020.7 0.2
21/04:30am 8.1 7.5 7.5 96 0.3 CALM 0 0 0 0 1020.9 1020.5 0.2
21/04:00am 8.5 8.0 7.9 96 0.3 CALM 0 0 0 0 1020.7 1020.3 0.2
21/03:30am 8.2 6.3 7.4 95 0.4 W 7 9 4 5 1020.8 1020.4 0.2
21/03:00am 8.4 7.5 7.6 95 0.4 N 2 7 1 4 1020.7 1020.3 0.2
21/02:30am 8.2 6.8 7.3 94 0.4 N 4 7 2 4 1020.2 1019.8 0.2
21/02:00am 9.1 8.3 8.2 94 0.4 W 2 6 1 3 1020.2 1019.8 0.2
21/01:30am 9.3 7.6 8.4 94 0.4 NW 7 9 4 5 1020.3 1019.9 0.2
21/01:00am 9.6 7.6 8.7 94 0.4 NW 9 11 5 6 1020.5 1020.1 0.2
21/12:30am 9.9 8.0 9.0 94 0.4 WNW 9 9 5 5 1020.5 1020.1 0.2
21/12:00am 10.3 8.4 9.2 93 0.6 W 9 11 5 6 1020.6 1020.2 0.2
 
Date/Time
WST
Temp
°C
App
Temp
°C
Dew
Point
Rel
Hum
%
Delta-T
°C
Wind Press
QNH
hPa
Press
MSL
hPa
Rain
since 9 am
mm
Dir
 
Spd
km/h
Gust
km/h
Spd
kts
Gust
kts
20/11:30pm 10.5 8.3 9.4 93 0.6 W 11 13 6 7 1020.7 1020.3 0.2
20/11:00pm 10.9 9.5 9.7 92 0.6 WSW 7 11 4 6 1020.7 1020.3 0.2
20/10:30pm 11.0 9.6 9.6 91 0.7 W 7 9 4 5 1021.0 1020.6 0.2
20/10:00pm 11.7 10.6 9.9 89 0.9 WSW 6 7 3 4 1021.0 1020.6 0.2
20/09:30pm 12.2 10.6 10.1 87 1.1 W 9 11 5 6 1021.0 1020.6 0.2
20/09:00pm 13.0 10.7 10.4 84 1.4 WSW 13 15 7 8 1020.8 1020.4 0.2
20/08:30pm 13.5 11.2 10.3 81 1.7 W 13 13 7 7 1020.9 1020.5 0.2
20/08:00pm 14.4 12.1 10.4 77 2.1 W 13 17 7 9 1020.5 1020.1 0.2
20/07:30pm 15.1 12.9 10.7 75 2.4 W 13 15 7 8 1020.2 1019.8 0.2
20/07:00pm 16.3 13.8 11.0 71 2.9 WSW 15 19 8 10 1019.7 1019.3 0.2
20/06:30pm 17.3 13.9 10.7 65 3.6 WSW 19 22 10 12 1019.4 1019.0 0.2
20/06:00pm 18.7 15.3 11.3 62 4.1 WSW 20 26 11 14 1019.0 1018.7 0.2
20/05:30pm 20.0 15.1 11.2 57 4.9 WSW 28 39 15 21 1018.6 1018.2 0.2
20/05:00pm 19.9 15.3 10.9 56 4.9 WSW 26 37 14 20 1018.2 1017.8 0.2
20/04:30pm 20.6 15.6 11.0 54 5.3 WSW 28 37 15 20 1017.9 1017.5 0.2
20/04:00pm 21.5 16.9 11.2 52 5.7 W 26 35 14 19 1017.6 1017.2 0.2
20/03:30pm 21.0 16.2 10.2 50 5.9 W 26 35 14 19 1017.4 1017.0 0.2
20/03:00pm 21.6 17.1 10.1 48 6.3 W 24 35 13 19 1017.1 1016.7 0.2
20/02:30pm 20.4 15.5 9.9 51 5.7 W 26 37 14 20 1017.1 1016.7 0.2
20/02:00pm 20.7 16.2 9.9 50 5.9 W 24 32 13 17 1016.9 1016.5 0.2
20/01:30pm 21.6 17.2 10.4 49 6.2 W 24 32 13 17 1017.0 1016.6 0.2
20/01:00pm 20.6 16.1 10.1 51 5.7 W 24 33 13 18 1017.2 1016.8 0.2
20/12:30pm 20.7 16.2 10.2 51 5.7 W 24 33 13 18 1017.1 1016.7 0.2
20/12:00pm 21.9 18.5 11.3 51 5.9 W 20 32 11 17 1017.1 1016.7 0.2
20/11:30am 19.8 15.8 10.5 55 5.1 W 22 35 12 19 1017.2 1016.8 0.2
20/11:00am 20.0 16.9 11.7 59 4.6 WNW 19 28 10 15 1017.3 1016.9 0.0
20/10:30am 18.1 14.8 11.0 63 3.9 WNW 19 30 10 16 1017.5 1017.1 0.0
20/10:00am 16.5 14.0 11.2 71 2.9 WNW 15 24 8 13 1017.7 1017.3 0.0
20/09:30am 15.0 12.0 10.8 76 2.2 NW 17 20 9 11 1017.9 1017.5 0.0
20/09:00am 13.5 10.0 10.3 81 1.7 W 19 24 10 13 1018.1 1017.7 21.6
20/08:30am 13.2 9.7 10.2 82 1.6 W 19 24 10 13 1018.1 1017.7 21.6
20/08:00am 12.4 9.2 10.0 85 1.2 W 17 26 9 14 1017.9 1017.5 21.6
20/07:30am 12.4 8.8 10.0 85 1.2 W 19 24 10 13 1017.5 1017.1 21.6
20/07:00am 11.9 8.3 9.8 87 1.1 W 19 30 10 16 1017.3 1016.9 21.6
20/06:30am 11.7 8.0 10.3 91 0.7 W 20 26 11 14 1017.0 1016.6 21.6
20/06:00am 11.4 8.7 10.3 93 0.6 WNW 15 19 8 10 1016.3 1015.9 21.6
20/05:30am 11.1 8.7 10.0 93 0.6 W 13 17 7 9 1016.0 1015.6 21.6
20/05:00am 11.2 8.4 9.9 92 0.7 W 15 19 8 10 1015.8 1015.4 21.6
20/04:30am 11.2 8.4 10.1 93 0.6 W 15 20 8 11 1015.7 1015.3 21.6
20/04:00am 11.5 8.3 9.9 90 0.8 WSW 17 20 9 11 1015.2 1014.8 21.6
20/03:30am 11.7 8.5 10.1 90 0.8 WSW 17 22 9 12 1014.8 1014.3 21.6
20/03:00am 11.9 9.1 10.1 89 0.9 WSW 15 20 8 11 1014.7 1014.2 21.6
20/02:30am 11.8 9.7 9.9 88 1.0 SW 11 15 6 8 1014.6 1014.1 21.6
20/02:00am 11.6 8.8 9.9 89 0.9 WSW 15 20 8 11 1014.6 1014.1 21.6
20/01:30am 11.5 8.3 9.8 89 0.9 SW 17 24 9 13 1014.7 1014.2 21.6
20/01:00am 11.7 8.4 9.6 87 1.1 SW 17 22 9 12 1014.9 1014.4 21.6
20/12:30am 11.9 9.0 9.8 87 1.1 SW 15 20 8 11 1015.0 1014.6 21.6
20/12:00am 11.9 8.6 9.6 86 1.2 SW 17 20 9 11 1015.0 1014.6 21.6
 
Date/Time
WST
Temp
°C
App
Temp
°C
Dew
Point
Rel
Hum
%
Delta-T
°C
Wind Press
QNH
hPa
Press
MSL
hPa
Rain
since 9 am
mm
Dir
 
Spd
km/h
Gust
km/h
Spd
kts
Gust
kts
19/11:30pm 12.2 9.0 10.1 87 1.1 SW 17 22 9 12 1015.2 1014.8 21.6
19/11:00pm 12.4 9.7 10.3 87 1.1 SW 15 20 8 11 1015.3 1014.9 21.6
19/10:30pm 12.6 9.8 10.1 85 1.3 SSW 15 20 8 11 1015.6 1015.2 21.6
19/10:00pm 12.7 10.0 10.2 85 1.3 SSW 15 20 8 11 1015.7 1015.3 21.6
19/09:30pm 12.7 10.1 10.6 87 1.1 SW 15 20 8 11 1015.4 1015.0 21.6
19/09:00pm 12.5 10.3 10.7 89 0.9 WSW 13 20 7 11 1015.1 1014.7 21.6
19/08:30pm 12.9 10.7 10.8 87 1.1 SW 13 19 7 10 1015.1 1014.7 21.6
19/08:00pm 13.2 11.1 11.3 88 1.0 SW 13 17 7 9 1015.2 1014.8 21.6
19/07:30pm 13.1 11.9 11.5 90 0.9 WSW 9 11 5 6 1015.1 1014.7 21.6
19/07:00pm 12.9 11.1 10.8 87 1.1 S 11 15 6 8 1014.7 1014.2 21.6
19/06:30pm 13.8 11.7 11.3 85 1.3 S 13 17 7 9 1014.3 1013.9 21.6
19/06:00pm 14.3 10.6 11.5 83 1.5 S 22 28 12 15 1013.9 1013.5 21.6
19/05:30pm 14.9 11.5 12.4 85 1.4 S 22 30 12 16 1013.3 1012.9 21.6
19/05:00pm 14.9 13.9 13.3 90 0.9 SSW 11 19 6 10 1013.0 1012.6 21.6
19/04:30pm 16.5 14.6 13.0 80 2.0 S 15 24 8 13 1012.5 1012.1 20.8
19/04:00pm 16.5 14.7 13.4 82 1.8 S 15 22 8 12 1012.3 1011.9 20.8
19/03:30pm 16.2 13.3 14.0 87 1.3 S 22 28 12 15 1012.2 1011.8 20.8
19/03:00pm 16.4 14.6 15.4 94 0.6 S 19 28 10 15 1012.0 1011.6 20.8
19/02:30pm 15.3 11.5 14.7 96 0.3 S 28 35 15 19 1011.6 1011.2 20.8
19/02:00pm 14.3 11.6 13.5 95 0.4 S 20 22 11 12 1012.4 1012.0 19.8
19/01:30pm 14.1 13.0 13.0 93 0.6 NE 11 19 6 10 1013.2 1012.8 14.4
19/01:00pm 14.9 14.5 14.1 95 0.5 SSE 9 13 5 7 1013.4 1013.0 9.4
19/12:30pm 14.5 14.0 13.9 96 0.3 ESE 9 17 5 9 1013.4 1013.0 9.4
19/12:00pm 13.7 12.6 13.1 96 0.3 SSW 11 17 6 9 1013.8 1013.4 8.8
19/11:30am 13.6 11.3 13.0 96 0.3 S 17 20 9 11 1014.0 1013.6 7.0
19/11:00am 13.8 11.5 13.0 95 0.4 SSE 17 24 9 13 1014.3 1013.9 5.2
19/10:30am 13.9 11.6 13.1 95 0.4 SE 17 24 9 13 1014.7 1014.2 5.0
19/10:00am 13.4 11.4 12.6 95 0.4 SSE 15 19 8 10 1014.8 1014.3 4.8
19/09:30am 13.4 11.7 12.5 94 0.5 SSE 13 19 7 10 1014.8 1014.3 2.8
19/09:00am 13.5 11.3 12.1 91 0.8 ESE 15 20 8 11 1014.8 1014.3 7.8
19/08:30am 14.0 11.4 12.0 88 1.1 ESE 17 24 9 13 1014.7 1014.2 7.4
19/08:00am 13.7 10.5 11.9 89 1.0 ESE 20 30 11 16 1014.6 1014.1 7.4
19/07:30am 13.6 10.4 11.8 89 1.0 E 20 30 11 16 1014.6 1014.1 7.4
19/07:00am 13.3 11.0 11.7 90 0.9 ESE 15 20 8 11 1014.3 1013.9 7.4
19/06:30am 13.0 9.6 11.4 90 0.9 ESE 20 30 11 16 1014.0 1013.6 7.4
19/06:00am 12.8 9.6 11.2 90 0.9 ESE 19 26 10 14 1014.1 1013.7 7.4
19/05:30am 12.7 9.3 11.1 90 0.8 ESE 20 35 11 19 1014.0 1013.6 7.4
19/05:00am 12.8 10.0 11.2 90 0.9 ESE 17 26 9 14 1013.8 1013.4 7.4
19/04:30am 12.7 9.5 11.1 90 0.8 ESE 19 26 10 14 1013.9 1013.5 7.4
19/04:00am 12.7 9.5 11.3 91 0.7 ESE 19 26 10 14 1013.9 1013.5 7.4
19/03:30am 12.5 7.5 11.1 91 0.7 SE 28 41 15 22 1013.2 1012.8 7.4
19/03:00am 12.5 9.1 11.1 91 0.7 ESE 20 32 11 17 1014.6 1014.1 7.4
19/02:30am 12.3 8.9 11.2 93 0.6 SE 20 28 11 15 1014.0 1013.6 7.4
19/02:00am 12.6 9.8 11.3 92 0.7 SE 17 20 9 11 1014.7 1014.2 7.2
19/01:30am 12.7 10.2 11.1 90 0.8 ESE 15 22 8 12 1015.4 1015.0 7.0
19/01:00am 12.7 9.9 11.3 91 0.7 ESE 17 24 9 13 1015.2 1014.8 6.6
19/12:30am 12.7 9.5 11.3 91 0.7 ESE 19 30 10 16 1015.4 1015.0 6.6
19/12:00am 12.7 10.0 11.6 93 0.6 ESE 17 24 9 13 1015.5 1015.1 6.6
 
Date/Time
WST
Temp
°C
App
Temp
°C
Dew
Point
Rel
Hum
%
Delta-T
°C
Wind Press
QNH
hPa
Press
MSL
hPa
Rain
since 9 am
mm
Dir
 
Spd
km/h
Gust
km/h
Spd
kts
Gust
kts
18/11:30pm 12.6 9.3 11.5 93 0.6 ESE 20 32 11 17 1015.7 1015.3 6.6
18/11:00pm 12.8 9.5 11.5 92 0.7 ESE 20 32 11 17 1016.2 1015.8 4.2
18/10:30pm 13.1 9.0 11.5 90 0.9 ESE 24 37 13 20 1015.9 1015.5 3.2
18/10:00pm 13.4 9.3 11.6 89 1.0 ESE 24 37 13 20 1015.8 1015.4 3.0
18/09:30pm 13.7 9.0 11.9 89 1.0 ESE 28 43 15 23 1015.9 1015.5 3.0
18/09:00pm 13.8 10.4 12.4 91 0.8 ESE 22 35 12 19 1015.7 1015.3 3.0
18/08:30pm 14.3 10.1 12.5 89 1.0 ESE 26 39 14 21 1015.4 1015.0 2.8
18/08:00pm 14.0 10.3 12.7 92 0.7 SE 24 33 13 18 1015.2 1014.8 2.8
18/07:30pm 14.4 11.4 12.6 89 1.0 SE 20 32 11 17 1015.3 1014.9 2.4
18/07:00pm 14.5 11.2 12.7 89 1.0 SE 22 30 12 16 1014.6 1014.1 1.8
18/06:30pm 14.7 11.4 12.9 89 1.0 SE 22 37 12 20 1013.9 1013.5 1.8
18/06:00pm 14.9 12.6 13.1 89 1.0 E 17 32 9 17 1014.1 1013.7 1.8
18/05:36pm 15.3 10.5 12.8 85 1.4 SE 30 48 16 26 1012.5 1012.1 0.8
18/05:30pm 15.4 9.9 12.5 83 1.6 SSE 33 48 18 26 1011.6 1011.2 0.6
18/05:23pm 15.7 9.4 12.3 80 1.9 SSE 37 56 20 30 1011.2 1010.8 0.4
18/05:00pm 17.3 11.8 12.0 71 2.9 S 32 46 17 25 1012.0 1011.6 0.2
18/04:30pm 17.4 12.9 12.7 74 2.6 SSE 28 41 15 22 1011.5 1011.1 0.2
18/04:00pm 18.0 14.1 13.3 74 2.7 SSE 26 37 14 20 1011.3 1010.9 0.2
18/03:30pm 18.7 14.5 13.6 72 2.9 SSE 28 41 15 22 1010.9 1010.4 0.2
18/03:00pm 19.7 15.3 14.1 70 3.3 SSE 30 41 16 22 1010.8 1010.3 0.2
18/02:30pm 19.8 15.4 14.2 70 3.3 SSE 30 39 16 21 1010.9 1010.4 0.2
18/02:00pm 20.2 16.3 14.3 69 3.5 SSE 28 37 15 20 1011.2 1010.8 0.2
18/01:30pm 19.8 15.1 14.4 71 3.2 SE 32 43 17 23 1011.5 1011.1 0.2
18/01:00pm 18.8 14.9 14.3 75 2.6 SE 28 41 15 22 1011.9 1011.5 0.2
18/12:30pm 19.2 15.6 15.3 78 2.3 SE 28 39 15 21 1011.8 1011.4 0.2
18/12:00pm 17.6 14.3 14.9 84 1.6 SSE 26 39 14 21 1012.1 1011.7 0.2
18/11:30am 16.5 13.7 14.2 86 1.3 SSE 22 32 12 17 1012.4 1012.0 0.0
18/11:00am 16.7 14.5 14.5 87 1.3 SE 19 26 10 14 1012.3 1011.9 0.0
18/10:30am 16.2 13.7 14.2 88 1.1 SE 20 26 11 14 1012.1 1011.7 0.0

Other Formats:

Comma delimited format used in spreadsheet applications
http://www.bom.gov.au/fwo/IDW60801/IDW60801.95625.axf

JavaScript Object Notation format (JSON) in row-major order
http://www.bom.gov.au/fwo/IDW60801/IDW60801.95625.json